Time;durP1;ratioP1;P1;durP2;ratioP2;P2;SDS_P1;SDS_P2;PMS_P1;PMS_P2;Temp;Humidity;BMP_temperature;BMP_pressure;BME280_temperature;BME280_humidity;BME280_pressure;Samples;Min_cycle;Max_cycle;Signal;HPM_P1;HPM_P2
2022/12/02 00:01:44;;;;;;;16.52;10.80;;;;;;;;;;5092359;28;20016;-73
2022/12/02 00:04:20;;;;;;;18.00;10.48;;;;;;;;;;5092101;28;20050;-75
2022/12/02 00:06:45;;;;;;;20.02;11.05;;;;;;;;;;5092211;28;20046;-73
2022/12/02 00:09:13;;;;;;;18.85;10.63;;;;;;;;;;5090960;28;20023;-74
2022/12/02 00:11:39;;;;;;;17.40;9.80;;;;;;;;;;5092731;28;20103;-77
2022/12/02 00:14:13;;;;;;;14.80;10.48;;;;;;;;;;5092079;28;20108;-76
2022/12/02 00:16:39;;;;;;;16.67;10.50;;;;;;;;;;5092193;28;20074;-74
2022/12/02 00:19:04;;;;;;;17.15;9.88;;;;;;;;;;5091784;28;20020;-75
2022/12/02 00:21:29;;;;;;;18.48;11.35;;;;;;;;;;5091993;28;20034;-75
2022/12/02 00:23:55;;;;;;;17.67;10.23;;;;;;;;;;5092346;28;20054;-75
2022/12/02 00:26:21;;;;;;;20.15;12.02;;;;;;;;;;5090936;28;20028;-73
2022/12/02 00:28:47;;;;;;;16.63;11.15;;;;;;;;;;5091885;28;20025;-75
2022/12/02 00:31:12;;;;;;;16.98;10.63;;;;;;;;;;5091809;28;20453;-73
2022/12/02 00:33:38;;;;;;;14.93;9.80;;;;;;;;;;5091928;28;20077;-73
2022/12/02 00:36:03;;;;;;;16.95;8.75;;;;;;;;;;5091682;28;20024;-75
2022/12/02 00:38:29;;;;;;;20.02;11.45;;;;;;;;;;5092248;28;20105;-77
2022/12/02 00:40:54;;;;;;;19.65;12.23;;;;;;;;;;5092108;28;20216;-74
2022/12/02 00:48:47;;;;;;;13.77;9.15;;;;;;;;;;5092342;28;20596;-73
2022/12/02 00:51:12;;;;;;;19.92;11.00;;;;;;;;;;5091979;28;20110;-74
2022/12/02 00:53:38;;;;;;;20.33;11.88;;;;;;;;;;5091887;28;20016;-74
2022/12/02 00:56:03;;;;;;;15.32;8.45;;;;;;;;;;5091790;28;20012;-71
2022/12/02 00:58:28;;;;;;;17.67;10.27;;;;;;;;;;5091849;28;20028;-72
2022/12/02 01:00:54;;;;;;;21.00;11.35;;;;;;;;;;5090181;28;20489;-72
2022/12/02 01:03:19;;;;;;;15.27;10.20;;;;;;;;;;5090322;28;20370;-73
2022/12/02 01:05:45;;;;;;;17.50;10.27;;;;;;;;;;5091734;28;20012;-70
2022/12/02 01:08:10;;;;;;;12.82;7.85;;;;;;;;;;5095739;28;20028;-70
2022/12/02 01:10:35;;;;;;;17.60;10.73;;;;;;;;;;5095818;28;20492;-72
2022/12/02 01:13:01;;;;;;;13.18;6.75;;;;;;;;;;5095327;28;20035;-71
2022/12/02 01:15:26;;;;;;;15.13;9.10;;;;;;;;;;5095562;28;20015;-71
2022/12/02 01:17:51;;;;;;;22.75;10.20;;;;;;;;;;5095766;28;20023;-73
2022/12/02 01:20:17;;;;;;;18.08;10.38;;;;;;;;;;5095590;28;20385;-74
2022/12/02 01:22:42;;;;;;;14.27;10.25;;;;;;;;;;5095438;28;20103;-73
2022/12/02 01:25:07;;;;;;;15.93;9.45;;;;;;;;;;5095206;28;20057;-73
2022/12/02 01:27:33;;;;;;;14.43;9.00;;;;;;;;;;5095627;28;20020;-74
2022/12/02 01:29:58;;;;;;;16.40;10.07;;;;;;;;;;5095173;28;20039;-70
2022/12/02 01:32:24;;;;;;;19.52;9.65;;;;;;;;;;5095217;28;20027;-69
2022/12/02 01:34:49;;;;;;;15.10;9.10;;;;;;;;;;5095053;28;20064;-71
2022/12/02 01:37:15;;;;;;;15.35;9.60;;;;;;;;;;5110605;28;20027;-73
2022/12/02 01:39:40;;;;;;;14.13;7.95;;;;;;;;;;5094853;28;20388;-71
2022/12/02 01:42:05;;;;;;;16.38;10.65;;;;;;;;;;5094956;28;20092;-73
2022/12/02 01:44:31;;;;;;;16.35;9.55;;;;;;;;;;5094943;28;20019;-69
2022/12/02 01:46:57;;;;;;;17.95;10.30;;;;;;;;;;5094473;28;20016;-71
2022/12/02 01:49:22;;;;;;;20.85;12.57;;;;;;;;;;5093691;28;20553;-73
2022/12/02 01:51:48;;;;;;;14.57;9.20;;;;;;;;;;5094814;28;20020;-72
2022/12/02 01:54:13;;;;;;;14.02;8.43;;;;;;;;;;5095106;28;20024;-70
2022/12/02 01:56:39;;;;;;;14.27;9.52;;;;;;;;;;5110264;28;20020;-72
2022/12/02 01:59:04;;;;;;;18.33;9.60;;;;;;;;;;5094337;28;20051;-72
2022/12/02 02:01:31;;;;;;;16.50;9.90;;;;;;;;;;5094725;28;20044;-69
2022/12/02 02:03:57;;;;;;;15.48;9.02;;;;;;;;;;5094565;28;20023;-72
2022/12/02 02:06:23;;;;;;;12.15;7.28;;;;;;;;;;5094693;28;20400;-72
2022/12/02 02:08:49;;;;;;;13.80;9.63;;;;;;;;;;5094548;28;20032;-72
2022/12/02 02:11:15;;;;;;;15.68;8.15;;;;;;;;;;5094160;28;20078;-70
2022/12/02 02:13:40;;;;;;;12.55;8.68;;;;;;;;;;5094231;28;20065;-72
2022/12/02 02:16:06;;;;;;;13.38;8.15;;;;;;;;;;5094227;28;20374;-71
2022/12/02 02:18:31;;;;;;;17.73;8.27;;;;;;;;;;5093110;28;20034;-72
2022/12/02 02:20:58;;;;;;;14.15;8.68;;;;;;;;;;5093944;28;20016;-68
2022/12/02 02:23:24;;;;;;;14.38;7.63;;;;;;;;;;5094048;28;20020;-69
2022/12/02 02:25:54;;;;;;;13.35;8.63;;;;;;;;;;5094333;28;20020;-73
2022/12/02 02:28:20;;;;;;;14.15;7.65;;;;;;;;;;5093798;28;20024;-72
2022/12/02 02:30:45;;;;;;;12.10;6.32;;;;;;;;;;5093728;28;20032;-72
2022/12/02 02:33:12;;;;;;;9.30;6.03;;;;;;;;;;5093808;28;20016;-71
2022/12/02 02:35:38;;;;;;;10.45;5.18;;;;;;;;;;5109566;28;20020;-71
2022/12/02 02:38:05;;;;;;;9.70;5.60;;;;;;;;;;5109486;28;20046;-72
2022/12/02 02:40:30;;;;;;;10.40;6.80;;;;;;;;;;5094115;28;20081;-68
2022/12/02 02:42:58;;;;;;;9.43;5.55;;;;;;;;;;5093894;28;20464;-67
2022/12/02 02:45:24;;;;;;;10.57;6.32;;;;;;;;;;5109640;28;20127;-71
2022/12/02 02:47:50;;;;;;;13.18;6.03;;;;;;;;;;5109657;28;20102;-70
2022/12/02 02:50:16;;;;;;;8.10;5.00;;;;;;;;;;5093923;28;20116;-73
2022/12/02 02:52:41;;;;;;;9.68;5.47;;;;;;;;;;5109474;28;20110;-70
2022/12/02 02:55:08;;;;;;;7.85;3.10;;;;;;;;;;5093503;28;20082;-74
2022/12/02 02:57:34;;;;;;;8.40;5.38;;;;;;;;;;5109071;28;20445;-71
2022/12/02 03:00:01;;;;;;;7.93;4.45;;;;;;;;;;5093281;28;20036;-70
2022/12/02 03:02:27;;;;;;;12.95;5.65;;;;;;;;;;5109121;28;20028;-69
2022/12/02 03:04:52;;;;;;;10.80;6.45;;;;;;;;;;5093298;28;20428;-68
2022/12/02 03:07:18;;;;;;;12.52;6.30;;;;;;;;;;5108935;28;20052;-69
2022/12/02 03:09:44;;;;;;;8.30;3.95;;;;;;;;;;5108542;28;20063;-69
2022/12/02 03:12:09;;;;;;;15.38;6.93;;;;;;;;;;5093165;28;20047;-70
2022/12/02 03:14:35;;;;;;;15.48;7.38;;;;;;;;;;5093309;28;20456;-69
2022/12/02 03:17:01;;;;;;;11.15;6.00;;;;;;;;;;5108530;28;20500;-69
2022/12/02 03:19:27;;;;;;;8.77;4.63;;;;;;;;;;5092960;28;20099;-67
2022/12/02 03:21:52;;;;;;;12.50;5.80;;;;;;;;;;5092839;28;20024;-68
2022/12/02 03:24:19;;;;;;;11.45;6.45;;;;;;;;;;5092700;28;20107;-68
2022/12/02 03:26:44;;;;;;;10.30;5.22;;;;;;;;;;5093158;28;20028;-69
2022/12/02 03:29:10;;;;;;;9.32;5.40;;;;;;;;;;5092401;28;20548;-68
2022/12/02 03:31:36;;;;;;;10.18;5.22;;;;;;;;;;5108659;28;20388;-68
2022/12/02 03:34:01;;;;;;;13.30;6.25;;;;;;;;;;5092488;28;20477;-68
2022/12/02 03:36:27;;;;;;;11.25;5.90;;;;;;;;;;5092555;28;20016;-68
2022/12/02 03:38:52;;;;;;;10.82;5.80;;;;;;;;;;5092394;28;20172;-67
2022/12/02 03:41:18;;;;;;;10.90;6.40;;;;;;;;;;5092187;28;20024;-71
2022/12/02 03:43:43;;;;;;;11.80;4.82;;;;;;;;;;5108266;28;20532;-69
2022/12/02 03:46:09;;;;;;;11.48;6.13;;;;;;;;;;5092945;28;20022;-70
2022/12/02 03:48:35;;;;;;;12.13;6.80;;;;;;;;;;5092291;28;20012;-69
2022/12/02 03:51:01;;;;;;;11.52;6.00;;;;;;;;;;5092508;28;20028;-69
2022/12/02 03:53:27;;;;;;;9.55;5.18;;;;;;;;;;5092343;28;20070;-70
2022/12/02 03:55:53;;;;;;;12.02;6.07;;;;;;;;;;5107718;28;20020;-68
2022/12/02 03:58:18;;;;;;;13.32;6.22;;;;;;;;;;5092205;28;20071;-71
2022/12/02 04:00:44;;;;;;;9.77;6.28;;;;;;;;;;5107458;28;20052;-70
2022/12/02 04:03:09;;;;;;;15.55;5.90;;;;;;;;;;5091661;28;20089;-69
2022/12/02 04:05:34;;;;;;;9.45;5.18;;;;;;;;;;5107770;28;20016;-68
2022/12/02 04:08:00;;;;;;;12.93;6.10;;;;;;;;;;5091885;28;20469;-70
2022/12/02 04:10:25;;;;;;;13.23;6.68;;;;;;;;;;5091800;28;20036;-68
2022/12/02 04:12:50;;;;;;;10.35;5.72;;;;;;;;;;5092300;28;20048;-68
2022/12/02 04:15:16;;;;;;;8.65;4.88;;;;;;;;;;5091777;28;20031;-69
2022/12/02 04:17:41;;;;;;;9.60;5.88;;;;;;;;;;5092173;28;20073;-70
2022/12/02 04:20:08;;;;;;;13.00;6.82;;;;;;;;;;5107574;28;20034;-69
2022/12/02 04:22:33;;;;;;;11.35;6.32;;;;;;;;;;5107372;28;20032;-69
2022/12/02 04:24:59;;;;;;;13.55;6.50;;;;;;;;;;5091473;28;20015;-71
2022/12/02 04:27:27;;;;;;;11.00;6.47;;;;;;;;;;5107218;28;20108;-70
2022/12/02 04:29:53;;;;;;;10.35;6.38;;;;;;;;;;5091873;28;20032;-69
2022/12/02 04:32:18;;;;;;;11.30;5.90;;;;;;;;;;5091891;28;20016;-71
2022/12/02 04:34:43;;;;;;;9.18;6.05;;;;;;;;;;5107198;28;20107;-68
2022/12/02 04:37:09;;;;;;;13.05;6.38;;;;;;;;;;5091687;28;20099;-69
2022/12/02 04:39:34;;;;;;;12.02;6.70;;;;;;;;;;5091730;28;20020;-69
2022/12/02 04:42:00;;;;;;;14.18;6.47;;;;;;;;;;5109377;28;20165;-70
2022/12/02 04:44:25;;;;;;;13.75;7.18;;;;;;;;;;5095686;28;20028;-71
2022/12/02 04:46:50;;;;;;;12.23;7.10;;;;;;;;;;5095926;28;20022;-70
2022/12/02 04:49:16;;;;;;;14.10;7.03;;;;;;;;;;5095538;28;20393;-69
2022/12/02 04:51:42;;;;;;;14.30;7.03;;;;;;;;;;5111182;28;20024;-70
2022/12/02 04:54:07;;;;;;;13.38;6.85;;;;;;;;;;5095629;28;20016;-69
2022/12/02 04:56:33;;;;;;;11.65;6.38;;;;;;;;;;5095494;28;20485;-69
2022/12/02 04:58:58;;;;;;;11.60;6.75;;;;;;;;;;5095308;28;20031;-70
2022/12/02 05:01:24;;;;;;;11.57;7.35;;;;;;;;;;5095251;28;20048;-68
2022/12/02 05:03:49;;;;;;;14.98;8.00;;;;;;;;;;5095356;28;20056;-70
2022/12/02 05:06:15;;;;;;;13.40;7.13;;;;;;;;;;5095428;28;20020;-69
2022/12/02 05:08:40;;;;;;;14.77;8.57;;;;;;;;;;5110537;28;20476;-69
2022/12/02 05:11:05;;;;;;;19.50;9.50;;;;;;;;;;5110451;28;20408;-69
2022/12/02 05:13:31;;;;;;;17.48;10.50;;;;;;;;;;5095339;28;20380;-69
2022/12/02 05:15:56;;;;;;;19.50;9.63;;;;;;;;;;5094872;28;20053;-69
2022/12/02 05:18:21;;;;;;;17.45;9.75;;;;;;;;;;5095110;28;20031;-68
2022/12/02 05:20:47;;;;;;;21.02;9.82;;;;;;;;;;5110750;28;20024;-69
2022/12/02 05:23:12;;;;;;;19.63;9.65;;;;;;;;;;5093278;28;20053;-71
2022/12/02 05:25:38;;;;;;;21.85;10.80;;;;;;;;;;5094829;28;20016;-69
2022/12/02 05:28:03;;;;;;;17.58;10.05;;;;;;;;;;5094927;28;20024;-70
2022/12/02 05:30:29;;;;;;;23.45;11.60;;;;;;;;;;5094941;28;20433;-70
2022/12/02 05:32:54;;;;;;;26.25;13.27;;;;;;;;;;5094525;28;20020;-70
2022/12/02 05:35:20;;;;;;;22.15;11.00;;;;;;;;;;5094843;28;20428;-69
2022/12/02 05:37:45;;;;;;;26.52;11.55;;;;;;;;;;5094510;28;20142;-69
2022/12/02 05:40:10;;;;;;;27.65;12.73;;;;;;;;;;5094865;28;20415;-70
2022/12/02 05:42:36;;;;;;;25.67;12.18;;;;;;;;;;5093507;28;20019;-71
2022/12/02 05:45:06;;;;;;;21.05;11.50;;;;;;;;;;5094397;28;20012;-68
2022/12/02 05:47:31;;;;;;;20.55;11.43;;;;;;;;;;5093110;28;20020;-70
2022/12/02 05:49:58;;;;;;;24.60;11.55;;;;;;;;;;5092986;28;20097;-70
2022/12/02 05:52:27;;;;;;;26.92;11.68;;;;;;;;;;5094271;28;20019;-70
2022/12/02 05:54:54;;;;;;;32.10;14.60;;;;;;;;;;5094044;28;20081;-70
2022/12/02 05:57:26;;;;;;;32.40;12.25;;;;;;;;;;5094417;28;20495;-67
2022/12/02 06:00:00;;;;;;;34.30;14.63;;;;;;;;;;5094474;28;20044;-70
2022/12/02 06:02:30;;;;;;;31.48;13.70;;;;;;;;;;5094183;28;20052;-69
2022/12/02 06:04:57;;;;;;;26.58;12.38;;;;;;;;;;5092746;28;20161;-70
2022/12/02 06:07:22;;;;;;;30.27;13.25;;;;;;;;;;5094256;28;20488;-70
2022/12/02 06:09:49;;;;;;;28.25;14.18;;;;;;;;;;5094219;28;20024;-70
2022/12/02 06:12:16;;;;;;;23.27;10.90;;;;;;;;;;5092795;28;20111;-68
2022/12/02 06:14:44;;;;;;;33.67;14.75;;;;;;;;;;5094080;28;20099;-69
2022/12/02 06:17:13;;;;;;;30.17;13.15;;;;;;;;;;5093418;28;20406;-69
2022/12/02 06:19:44;;;;;;;30.15;14.43;;;;;;;;;;5093861;28;20051;-69
2022/12/02 06:22:16;;;;;;;37.22;16.70;;;;;;;;;;5092231;28;20028;-68
2022/12/02 06:24:42;;;;;;;35.95;15.93;;;;;;;;;;5093807;28;20031;-69
2022/12/02 06:27:11;;;;;;;36.75;15.35;;;;;;;;;;5092018;28;20102;-67
2022/12/02 06:29:45;;;;;;;28.23;14.40;;;;;;;;;;5092004;28;20020;-69
2022/12/02 06:32:13;;;;;;;39.38;17.42;;;;;;;;;;5093327;28;20062;-71
2022/12/02 06:34:40;;;;;;;26.80;14.40;;;;;;;;;;5091911;28;20392;-69
2022/12/02 06:37:13;;;;;;;28.45;12.80;;;;;;;;;;5093313;28;20023;-69
2022/12/02 06:39:39;;;;;;;33.10;17.75;;;;;;;;;;5092745;28;20016;-70
2022/12/02 06:42:14;;;;;;;40.30;14.77;;;;;;;;;;5091997;28;20031;-68
2022/12/02 06:47:33;;;;;;;37.30;17.67;;;;;;;;;;5092739;28;20027;-71
2022/12/02 06:50:05;;;;;;;37.85;17.20;;;;;;;;;;5091291;28;20119;-70
2022/12/02 06:52:38;;;;;;;36.13;16.95;;;;;;;;;;5092756;28;20020;-71
2022/12/02 06:55:23;;;;;;;39.05;17.25;;;;;;;;;;5091164;28;20119;-69
2022/12/02 06:57:48;;;;;;;39.40;17.75;;;;;;;;;;5093337;28;20118;-66
2022/12/02 07:00:14;;;;;;;40.35;19.33;;;;;;;;;;5092466;28;20420;-67
2022/12/02 07:02:40;;;;;;;36.20;16.85;;;;;;;;;;5091755;28;20100;-67
2022/12/02 07:05:06;;;;;;;34.92;17.23;;;;;;;;;;5091763;28;20146;-67
2022/12/02 07:07:33;;;;;;;32.00;15.63;;;;;;;;;;5092342;28;20027;-67
2022/12/02 07:10:18;;;;;;;39.60;16.80;;;;;;;;;;5092467;28;20465;-66
2022/12/02 07:12:45;;;;;;;35.47;16.98;;;;;;;;;;5092736;28;20036;-65
2022/12/02 07:15:18;;;;;;;38.47;17.35;;;;;;;;;;5090782;28;20169;-67
2022/12/02 07:17:44;;;;;;;31.02;17.83;;;;;;;;;;5092056;28;20012;-67
2022/12/02 07:20:15;;;;;;;39.28;19.27;;;;;;;;;;5090625;28;20111;-68
2022/12/02 07:22:43;;;;;;;24.88;10.18;;;;;;;;;;5092530;28;20023;-67
2022/12/02 07:25:09;;;;;;;16.00;7.18;;;;;;;;;;5092625;28;20024;-69
2022/12/02 07:27:41;;;;;;;17.02;7.40;;;;;;;;;;5092338;28;20027;-70
2022/12/02 07:30:20;;;;;;;16.85;5.47;;;;;;;;;;5092686;28;20039;-69
2022/12/02 07:32:45;;;;;;;10.95;4.88;;;;;;;;;;5092638;28;20031;-69
2022/12/02 07:35:10;;;;;;;12.07;4.57;;;;;;;;;;5107942;28;20020;-69
2022/12/02 07:37:36;;;;;;;22.77;8.13;;;;;;;;;;5091965;28;20069;-68
2022/12/02 07:40:02;;;;;;;17.85;7.80;;;;;;;;;;5092203;28;20107;-66
2022/12/02 07:42:27;;;;;;;0.05;0.05;;;;;;;;;;5107322;28;20537;-67
2022/12/02 07:44:52;;;;;;;0.10;0.10;;;;;;;;;;5091728;28;20020;-69
2022/12/02 07:47:18;;;;;;;0.55;0.55;;;;;;;;;;5091786;28;20063;-68
2022/12/02 07:49:44;;;;;;;1.05;0.57;;;;;;;;;;5107521;28;20071;-69
2022/12/02 07:52:10;;;;;;;2.22;0.32;;;;;;;;;;5091981;28;20095;-69
2022/12/02 07:54:35;;;;;;;0.98;0.45;;;;;;;;;;5091752;28;20030;-68
2022/12/02 07:57:01;;;;;;;0.95;0.55;;;;;;;;;;5091774;28;20103;-69
2022/12/02 07:59:26;;;;;;;0.95;0.95;;;;;;;;;;5092301;28;20016;-69
2022/12/02 08:01:51;;;;;;;0.30;0.30;;;;;;;;;;5091335;28;20039;-68
2022/12/02 08:04:17;;;;;;;0.00;0.00;;;;;;;;;;5107382;28;20020;-70
2022/12/02 08:06:43;;;;;;;0.35;0.35;;;;;;;;;;5091781;28;20452;-69
2022/12/02 08:09:09;;;;;;;0.52;0.52;;;;;;;;;;5091294;28;20072;-71
2022/12/02 08:11:34;;;;;;;1.35;1.25;;;;;;;;;;5106897;28;20021;-69
2022/12/02 08:14:00;;;;;;;0.40;0.40;;;;;;;;;;5107036;28;20122;-69
2022/12/02 08:16:25;;;;;;;0.15;0.10;;;;;;;;;;5090752;28;20023;-68
2022/12/02 08:18:51;;;;;;;0.85;0.55;;;;;;;;;;5091899;28;20012;-72
2022/12/02 08:21:16;;;;;;;1.13;1.02;;;;;;;;;;5091666;28;20039;-69
2022/12/02 08:23:41;;;;;;;0.30;0.30;;;;;;;;;;5091691;28;20422;-69
2022/12/02 08:26:07;;;;;;;0.20;0.20;;;;;;;;;;5091462;28;20024;-69
2022/12/02 08:28:32;;;;;;;0.77;0.73;;;;;;;;;;5107306;28;20092;-68
2022/12/02 08:30:57;;;;;;;1.20;0.85;;;;;;;;;;5090856;28;20036;-70
2022/12/02 08:33:23;;;;;;;0.73;0.73;;;;;;;;;;5107095;28;20042;-69
2022/12/02 08:35:48;;;;;;;0.45;0.45;;;;;;;;;;5091272;28;20035;-68
2022/12/02 08:38:14;;;;;;;0.70;0.70;;;;;;;;;;5091625;28;20031;-69
2022/12/02 08:40:39;;;;;;;2.40;2.20;;;;;;;;;;5091433;28;20092;-70
2022/12/02 08:43:05;;;;;;;1.55;1.45;;;;;;;;;;5106966;28;20048;-69
2022/12/02 08:45:30;;;;;;;0.10;0.10;;;;;;;;;;5091428;28;20012;-69
2022/12/02 08:47:55;;;;;;;0.63;0.63;;;;;;;;;;5091524;28;20465;-68
2022/12/02 08:50:21;;;;;;;0.63;0.63;;;;;;;;;;5091475;28;20024;-70
2022/12/02 08:52:46;;;;;;;1.48;1.05;;;;;;;;;;5106880;28;20035;-69
2022/12/02 08:55:12;;;;;;;0.55;0.55;;;;;;;;;;5091045;28;20027;-70
2022/12/02 08:57:37;;;;;;;0.40;0.40;;;;;;;;;;5106992;28;20358;-70
2022/12/02 09:00:04;;;;;;;0.93;0.80;;;;;;;;;;5106785;28;20044;-70
2022/12/02 09:02:30;;;;;;;1.45;0.70;;;;;;;;;;5091555;28;20447;-70
2022/12/02 09:04:55;;;;;;;1.35;1.27;;;;;;;;;;5091970;28;20043;-68
2022/12/02 09:07:20;;;;;;;0.52;0.50;;;;;;;;;;5091466;28;20023;-70
2022/12/02 09:09:46;;;;;;;1.85;1.75;;;;;;;;;;5091323;28;20078;-70
2022/12/02 09:12:11;;;;;;;0.52;0.52;;;;;;;;;;5106515;28;20026;-69
2022/12/02 09:14:37;;;;;;;0.93;0.93;;;;;;;;;;5091221;28;20028;-70
2022/12/02 09:17:02;;;;;;;4.03;1.58;;;;;;;;;;5091599;28;20016;-72
2022/12/02 09:19:28;;;;;;;5.30;1.13;;;;;;;;;;5091742;28;20354;-70
2022/12/02 09:21:53;;;;;;;0.93;0.93;;;;;;;;;;5091155;28;20012;-71
2022/12/02 09:24:18;;;;;;;1.42;1.33;;;;;;;;;;5091338;28;20400;-71
2022/12/02 09:26:44;;;;;;;0.10;0.10;;;;;;;;;;5091283;28;20016;-72
2022/12/02 09:29:09;;;;;;;2.30;2.10;;;;;;;;;;5110606;28;20067;-71
2022/12/02 09:31:35;;;;;;;0.45;0.45;;;;;;;;;;5095096;28;20027;-71
2022/12/02 09:34:00;;;;;;;1.55;1.45;;;;;;;;;;5095052;28;20020;-72
2022/12/02 09:36:25;;;;;;;1.42;0.80;;;;;;;;;;5110169;28;20012;-70
2022/12/02 09:38:51;;;;;;;1.58;1.48;;;;;;;;;;5094467;28;20462;-69
2022/12/02 09:41:16;;;;;;;1.70;1.48;;;;;;;;;;5109342;28;20012;-70
2022/12/02 09:43:42;;;;;;;1.40;1.23;;;;;;;;;;5094720;28;20027;-69
2022/12/02 09:46:08;;;;;;;0.82;0.68;;;;;;;;;;5110095;28;20020;-71
2022/12/02 09:48:34;;;;;;;2.38;2.17;;;;;;;;;;5094351;28;20372;-71
2022/12/02 09:51:00;;;;;;;5.07;2.20;;;;;;;;;;5094812;28;20028;-71
2022/12/02 09:53:30;;;;;;;1.15;1.15;;;;;;;;;;5094786;28;20520;-73
2022/12/02 09:55:56;;;;;;;1.50;1.17;;;;;;;;;;5094596;28;20044;-72
2022/12/02 09:58:21;;;;;;;0.88;0.88;;;;;;;;;;5109575;28;20220;-72
2022/12/02 10:00:50;;;;;;;1.52;1.30;;;;;;;;;;5109655;28;20048;-71
2022/12/02 10:03:16;;;;;;;1.40;1.30;;;;;;;;;;5093794;28;20333;-71
2022/12/02 10:05:42;;;;;;;0.93;0.63;;;;;;;;;;5094011;28;20448;-70
2022/12/02 10:08:12;;;;;;;0.63;0.63;;;;;;;;;;5094102;28;20046;-72
2022/12/02 10:10:39;;;;;;;0.38;0.38;;;;;;;;;;5093964;28;20036;-69
2022/12/02 10:13:04;;;;;;;0.88;0.85;;;;;;;;;;5093444;28;20020;-70
2022/12/02 10:15:33;;;;;;;0.45;0.45;;;;;;;;;;5093997;28;20031;-71
2022/12/02 10:18:07;;;;;;;0.80;0.80;;;;;;;;;;5094778;28;20373;-71
2022/12/02 10:20:32;;;;;;;1.00;0.95;;;;;;;;;;5094237;28;20380;-72
2022/12/02 10:23:05;;;;;;;2.42;1.60;;;;;;;;;;5093970;28;20123;-71
2022/12/02 10:25:31;;;;;;;0.85;0.85;;;;;;;;;;5093587;28;20031;-73
2022/12/02 10:27:57;;;;;;;1.33;1.23;;;;;;;;;;5109327;28;20012;-71
2022/12/02 10:30:24;;;;;;;1.80;1.10;;;;;;;;;;5109183;28;20032;-72
2022/12/02 10:32:59;;;;;;;3.10;1.75;;;;;;;;;;5094142;28;20016;-74
2022/12/02 10:35:25;;;;;;;1.20;1.08;;;;;;;;;;5093538;28;20020;-74
2022/12/02 10:37:51;;;;;;;0.60;0.60;;;;;;;;;;5093087;28;20022;-70
2022/12/02 10:40:18;;;;;;;2.70;1.38;;;;;;;;;;5091797;28;20019;-72
2022/12/02 10:42:44;;;;;;;0.90;0.65;;;;;;;;;;5108728;28;20472;-73
2022/12/02 10:45:15;;;;;;;0.52;0.43;;;;;;;;;;5092532;28;20065;-73
2022/12/02 10:47:40;;;;;;;0.93;0.80;;;;;;;;;;5092935;28;20060;-74
2022/12/02 10:50:15;;;;;;;5.93;0.45;;;;;;;;;;5093019;28;20104;-74
2022/12/02 10:52:44;;;;;;;1.65;1.25;;;;;;;;;;5108822;28;20137;-75
2022/12/02 10:55:10;;;;;;;1.77;1.55;;;;;;;;;;5092768;28;20028;-74
2022/12/02 10:57:37;;;;;;;0.00;0.00;;;;;;;;;;5092502;28;20016;-73
2022/12/02 11:00:11;;;;;;;0.80;0.80;;;;;;;;;;5092306;28;20047;-75
2022/12/02 11:02:45;;;;;;;0.28;0.28;;;;;;;;;;5093094;28;20027;-71
2022/12/02 11:05:27;;;;;;;0.32;0.32;;;;;;;;;;5108264;28;20039;-75
2022/12/02 11:07:58;;;;;;;1.23;0.90;;;;;;;;;;5108066;28;20073;-74
2022/12/02 11:10:26;;;;;;;0.60;0.60;;;;;;;;;;5092281;28;20064;-75
2022/12/02 11:12:51;;;;;;;0.93;0.90;;;;;;;;;;5093321;28;20026;-73
2022/12/02 11:15:32;;;;;;;1.45;1.23;;;;;;;;;;5111273;28;20107;-74
2022/12/02 11:17:57;;;;;;;0.57;0.50;;;;;;;;;;5114365;28;20024;-74
2022/12/02 11:20:34;;;;;;;1.13;1.02;;;;;;;;;;5115709;28;20031;-74
2022/12/02 11:22:59;;;;;;;0.35;0.35;;;;;;;;;;5093553;28;20059;-75
2022/12/02 11:25:43;;;;;;;0.80;0.80;;;;;;;;;;5092883;28;20031;-75
2022/12/02 11:28:18;;;;;;;0.30;0.30;;;;;;;;;;5092561;28;20024;-76
2022/12/02 11:30:44;;;;;;;0.00;0.00;;;;;;;;;;5093163;28;20589;-77
2022/12/02 11:33:10;;;;;;;1.85;0.93;;;;;;;;;;5092285;28;20024;-75
2022/12/02 11:35:54;;;;;;;2.10;1.73;;;;;;;;;;5108600;28;20013;-77
2022/12/02 11:38:25;;;;;;;0.45;0.45;;;;;;;;;;5108403;28;20484;-75
2022/12/02 11:40:51;;;;;;;1.50;1.08;;;;;;;;;;5093006;28;20028;-76
2022/12/02 11:43:35;;;;;;;0.85;0.85;;;;;;;;;;5107978;28;20020;-75
2022/12/02 11:46:02;;;;;;;1.42;1.33;;;;;;;;;;5092974;28;20488;-76
2022/12/02 11:48:28;;;;;;;0.75;0.75;;;;;;;;;;5108163;28;20016;-75
2022/12/02 11:50:54;;;;;;;0.70;0.70;;;;;;;;;;5091842;28;20028;-76
2022/12/02 11:53:21;;;;;;;0.17;0.17;;;;;;;;;;5092547;28;20013;-77
2022/12/02 11:55:47;;;;;;;0.47;0.47;;;;;;;;;;5092421;28;20108;-77
2022/12/02 11:58:18;;;;;;;7.97;1.88;;;;;;;;;;5092608;28;20028;-77
2022/12/02 12:01:04;;;;;;;0.30;0.30;;;;;;;;;;5091692;28;20466;-76
2022/12/02 12:03:29;;;;;;;0.30;0.30;;;;;;;;;;5107861;28;20028;-76
2022/12/02 12:06:11;;;;;;;1.15;0.90;;;;;;;;;;5092520;28;20103;-77
2022/12/02 12:08:44;;;;;;;1.25;1.05;;;;;;;;;;5107935;28;20065;-77
2022/12/02 12:11:21;;;;;;;4.43;1.30;;;;;;;;;;5107329;28;20036;-77
2022/12/02 12:14:06;;;;;;;0.13;0.13;;;;;;;;;;5107924;28;20077;-75
2022/12/02 12:16:33;;;;;;;6.32;1.13;;;;;;;;;;5092689;28;20095;-78
2022/12/02 12:18:59;;;;;;;0.22;0.22;;;;;;;;;;5091955;28;20012;-79
2022/12/02 12:21:31;;;;;;;0.47;0.38;;;;;;;;;;5092419;28;20024;-76
2022/12/02 12:24:15;;;;;;;0.82;0.75;;;;;;;;;;5107506;28;20028;-77
2022/12/02 12:26:41;;;;;;;0.52;0.50;;;;;;;;;;5107665;28;20034;-74
2022/12/02 12:29:06;;;;;;;0.25;0.25;;;;;;;;;;5092040;28;20028;-74
2022/12/02 12:31:32;;;;;;;2.85;1.05;;;;;;;;;;5107745;28;20024;-76
2022/12/02 12:33:57;;;;;;;0.60;0.57;;;;;;;;;;5092093;28;20020;-77
2022/12/02 12:36:23;;;;;;;0.43;0.43;;;;;;;;;;5091681;28;20020;-74
2022/12/02 12:38:48;;;;;;;0.73;0.73;;;;;;;;;;5106897;28;20107;-77
2022/12/02 12:41:13;;;;;;;0.70;0.40;;;;;;;;;;5091369;28;20020;-77
2022/12/02 12:43:39;;;;;;;0.50;0.50;;;;;;;;;;5107662;28;20205;-76
2022/12/02 12:46:04;;;;;;;0.55;0.55;;;;;;;;;;5092317;28;20073;-79
2022/12/02 12:48:30;;;;;;;0.47;0.47;;;;;;;;;;5091917;28;20469;-79
2022/12/02 12:50:55;;;;;;;1.63;1.52;;;;;;;;;;5106973;28;20048;-78
2022/12/02 12:53:21;;;;;;;1.38;1.27;;;;;;;;;;5106960;28;20065;-78
2022/12/02 12:55:46;;;;;;;0.57;0.57;;;;;;;;;;5106608;28;20016;-78
2022/12/02 12:58:12;;;;;;;3.03;0.75;;;;;;;;;;5091894;28;20020;-77
2022/12/02 13:00:38;;;;;;;0.10;0.10;;;;;;;;;;5091423;28;20036;-77
2022/12/02 13:03:03;;;;;;;0.77;0.77;;;;;;;;;;5093692;28;20405;-79
2022/12/02 13:05:28;;;;;;;1.25;0.88;;;;;;;;;;5095590;28;20024;-79
2022/12/02 13:07:54;;;;;;;0.50;0.50;;;;;;;;;;5095722;28;20024;-80
2022/12/02 13:10:20;;;;;;;0.93;0.93;;;;;;;;;;5095383;28;20028;-77
2022/12/02 13:12:45;;;;;;;1.50;1.27;;;;;;;;;;5095369;28;20023;-79
2022/12/02 13:15:11;;;;;;;0.95;0.95;;;;;;;;;;5095844;28;20149;-78
2022/12/02 13:17:37;;;;;;;0.93;0.52;;;;;;;;;;5095411;28;20020;-78
2022/12/02 13:20:03;;;;;;;0.65;0.65;;;;;;;;;;5095688;28;20024;-79
2022/12/02 13:22:28;;;;;;;0.98;0.90;;;;;;;;;;5095392;28;20044;-77
2022/12/02 13:24:54;;;;;;;0.88;0.88;;;;;;;;;;5095412;28;20023;-77
2022/12/02 13:27:19;;;;;;;0.60;0.60;;;;;;;;;;5111427;28;20025;-79
2022/12/02 13:29:45;;;;;;;1.17;0.70;;;;;;;;;;5110586;28;20457;-76
2022/12/02 13:32:10;;;;;;;0.45;0.45;;;;;;;;;;5111019;28;20020;-81
2022/12/02 13:34:35;;;;;;;0.50;0.38;;;;;;;;;;5111205;28;20042;-79
2022/12/02 13:37:01;;;;;;;0.65;0.65;;;;;;;;;;5096916;28;20024;-77
2022/12/02 13:39:26;;;;;;;1.98;1.73;;;;;;;;;;5101498;28;20091;-79
2022/12/02 13:41:52;;;;;;;0.75;0.75;;;;;;;;;;5100130;28;20127;-76
2022/12/02 13:44:17;;;;;;;1.35;1.25;;;;;;;;;;5095384;28;20076;-78
2022/12/02 13:46:42;;;;;;;0.47;0.40;;;;;;;;;;5111168;28;20115;-78
2022/12/02 13:49:08;;;;;;;0.63;0.63;;;;;;;;;;5094586;28;20027;-81
2022/12/02 13:51:33;;;;;;;0.55;0.55;;;;;;;;;;5093951;28;20016;-79
2022/12/02 13:53:58;;;;;;;1.65;0.73;;;;;;;;;;5094468;28;20020;-79
2022/12/02 13:56:24;;;;;;;1.65;1.00;;;;;;;;;;5094820;28;20379;-77
2022/12/02 13:58:51;;;;;;;0.22;0.22;;;;;;;;;;5095220;28;20048;-79
2022/12/02 14:01:16;;;;;;;0.35;0.15;;;;;;;;;;5094900;28;20040;-78
2022/12/02 14:03:42;;;;;;;1.73;1.08;;;;;;;;;;5094524;28;20016;-79
2022/12/02 14:06:07;;;;;;;0.20;0.20;;;;;;;;;;5110000;28;20468;-79
2022/12/02 14:08:33;;;;;;;0.03;0.03;;;;;;;;;;5109520;28;20020;-80
2022/12/02 14:10:58;;;;;;;0.55;0.55;;;;;;;;;;5094849;28;20024;-78
2022/12/02 14:13:23;;;;;;;0.50;0.50;;;;;;;;;;5109169;28;20012;-81
2022/12/02 14:15:49;;;;;;;0.20;0.20;;;;;;;;;;5110189;28;20106;-77
2022/12/02 14:18:14;;;;;;;3.75;1.08;;;;;;;;;;5094380;28;20536;-79
2022/12/02 14:20:40;;;;;;;0.57;0.55;;;;;;;;;;5109200;28;20115;-76
2022/12/02 14:23:07;;;;;;;0.68;0.68;;;;;;;;;;5093537;28;20028;-78
2022/12/02 14:25:32;;;;;;;0.32;0.30;;;;;;;;;;5095198;28;20066;-80
2022/12/02 14:27:57;;;;;;;0.95;0.88;;;;;;;;;;5094538;28;20071;-79
2022/12/02 14:30:23;;;;;;;1.20;0.73;;;;;;;;;;5094045;28;20402;-80
2022/12/02 14:32:48;;;;;;;0.95;0.88;;;;;;;;;;5093776;28;20103;-79
2022/12/02 14:35:14;;;;;;;0.93;0.73;;;;;;;;;;5109241;28;20099;-77
2022/12/02 14:37:39;;;;;;;0.85;0.85;;;;;;;;;;5109836;28;20027;-77
2022/12/02 14:40:06;;;;;;;0.57;0.22;;;;;;;;;;5109672;28;20020;-74